createdAt,value
2023-03-05T00:04:19.559Z,78.30
2023-03-05T00:09:21.915Z,77.05
2023-03-05T00:14:23.721Z,77.04
2023-03-05T00:19:25.381Z,77.99
2023-03-05T00:24:27.140Z,78.29
2023-03-05T00:29:31.676Z,78.04
2023-03-05T00:34:33.583Z,77.94
2023-03-05T00:39:35.341Z,78.92
2023-03-05T00:44:38.168Z,78.23
2023-03-05T00:49:39.837Z,78.24
2023-03-05T00:54:41.455Z,78.15
2023-03-05T00:59:43.110Z,77.43
2023-03-05T01:04:47.269Z,77.96
2023-03-05T01:09:49.491Z,77.90
2023-03-05T01:14:51.209Z,78.13
2023-03-05T01:19:52.897Z,77.04
2023-03-05T01:24:54.614Z,75.78
2023-03-05T01:29:56.315Z,76.16
2023-03-05T01:34:59.290Z,75.22
2023-03-05T01:40:01.000Z,74.81
2023-03-05T01:45:11.550Z,73.39
2023-03-05T01:50:17.162Z,72.73
2023-03-05T01:55:22.244Z,71.97
2023-03-05T02:00:34.987Z,71.66
2023-03-05T02:05:38.909Z,71.53
2023-03-05T02:10:46.657Z,72.45
2023-03-05T02:15:49.841Z,72.59
2023-03-05T02:20:57.413Z,73.53
2023-03-05T02:25:59.354Z,74.30
2023-03-05T02:31:01.230Z,74.83
2023-03-05T02:36:03.002Z,74.89
2023-03-05T02:41:05.934Z,74.84
2023-03-05T02:46:08.976Z,74.35
2023-03-05T02:51:10.739Z,74.31
2023-03-05T02:56:12.946Z,74.48
2023-03-05T03:01:14.916Z,73.84
2023-03-05T03:06:16.828Z,73.47
2023-03-05T03:11:19.137Z,73.41
2023-03-05T03:16:23.592Z,74.00
2023-03-05T03:21:26.888Z,74.38
2023-03-05T03:26:31.968Z,73.83
2023-03-05T03:31:33.699Z,73.66
2023-03-05T03:36:35.378Z,73.71
2023-03-05T03:41:37.986Z,73.06
2023-03-05T03:46:40.898Z,73.78
2023-03-05T03:51:42.539Z,72.73
2023-03-05T03:56:44.481Z,72.82
2023-03-05T04:01:46.228Z,72.49
2023-03-05T04:06:48.008Z,72.66
2023-03-05T04:11:49.971Z,72.20
2023-03-05T04:16:51.649Z,72.13
2023-03-05T04:21:53.350Z,71.69
2023-03-05T04:26:55.072Z,72.54
2023-03-05T04:31:57.052Z,72.51
2023-03-05T04:36:59.163Z,73.17
2023-03-05T04:42:00.983Z,74.42
2023-03-05T04:47:02.676Z,75.38
2023-03-05T04:52:04.378Z,76.04
2023-03-05T04:57:06.649Z,77.57
2023-03-05T05:02:08.360Z,78.43
2023-03-05T05:07:10.096Z,79.79
2023-03-05T05:12:12.162Z,80.11
2023-03-05T05:17:13.781Z,80.21
2023-03-05T05:22:15.549Z,80.32
2023-03-05T05:27:17.364Z,80.56
2023-03-05T05:32:24.137Z,80.94
2023-03-05T05:37:27.108Z,80.80
2023-03-05T05:42:29.553Z,81.02
2023-03-05T05:47:31.255Z,80.36
2023-03-05T05:52:32.860Z,78.60
2023-03-05T05:57:35.097Z,78.46
2023-03-05T06:02:39.181Z,78.05
2023-03-05T06:07:40.974Z,77.63
2023-03-05T06:12:43.102Z,77.66
2023-03-05T06:17:44.813Z,76.51
2023-03-05T06:22:46.523Z,75.93
2023-03-05T06:27:48.152Z,76.03
2023-03-05T06:32:49.964Z,75.17
2023-03-05T06:37:51.701Z,75.41
2023-03-05T06:42:53.333Z,75.28
2023-03-05T06:47:54.945Z,74.56
2023-03-05T06:52:56.596Z,74.29
2023-03-05T06:57:58.224Z,75.15
2023-03-05T07:02:59.872Z,75.11
2023-03-05T07:08:01.557Z,75.85
2023-03-05T07:13:03.416Z,77.30
2023-03-05T07:18:05.446Z,77.94
2023-03-05T07:23:07.074Z,79.87
2023-03-05T07:28:09.543Z,79.68
2023-03-05T07:33:11.791Z,80.12
2023-03-05T07:38:13.432Z,79.50
2023-03-05T07:43:15.352Z,78.50
2023-03-05T07:48:18.211Z,78.33
2023-03-05T07:53:19.830Z,78.30
2023-03-05T07:58:21.431Z,78.78
2023-03-05T08:03:23.105Z,79.36
2023-03-05T08:08:24.753Z,79.91
2023-03-05T08:13:26.954Z,81.51
2023-03-05T08:18:28.602Z,83.67
2023-03-05T08:23:30.476Z,83.84
2023-03-05T08:28:34.348Z,83.37
2023-03-05T08:33:36.682Z,81.86
2023-03-05T08:38:38.332Z,81.22
2023-03-05T08:43:39.993Z,80.19
2023-03-05T08:48:41.683Z,79.23
2023-03-05T08:53:44.280Z,78.70
2023-03-05T08:58:48.853Z,78.06
2023-03-05T09:03:50.693Z,81.45
2023-03-05T09:08:52.627Z,85.36
2023-03-05T09:13:54.565Z,85.55
2023-03-05T09:18:56.236Z,86.79
2023-03-05T09:24:00.486Z,86.85
2023-03-05T09:29:02.131Z,87.62
2023-03-05T09:34:04.900Z,87.95
2023-03-05T09:39:07.082Z,87.84
2023-03-05T09:44:21.238Z,86.21
2023-03-05T09:49:38.021Z,85.36
2023-03-05T09:54:42.494Z,83.44
2023-03-05T09:59:54.203Z,81.90
2023-03-05T10:05:13.084Z,79.28
2023-03-05T10:10:26.283Z,78.07
2023-03-05T10:15:51.442Z,76.40
2023-03-05T10:21:04.088Z,75.56
2023-03-05T10:26:22.129Z,75.39
2023-03-05T10:31:44.002Z,74.81
2023-03-05T10:36:48.640Z,74.03
2023-03-05T10:42:02.551Z,71.68
2023-03-05T10:47:12.901Z,70.71
2023-03-05T10:52:18.904Z,69.59
2023-03-05T10:57:28.180Z,72.03
2023-03-05T11:02:29.915Z,71.69
2023-03-05T11:07:34.940Z,72.72
2023-03-05T11:12:38.308Z,72.44
2023-03-05T11:17:44.991Z,73.84
2023-03-05T11:23:02.008Z,72.98
2023-03-05T11:28:04.330Z,73.66
2023-03-05T11:33:10.636Z,74.16
2023-03-05T11:38:24.424Z,73.71
2023-03-05T11:43:26.553Z,73.15
2023-03-05T11:48:38.970Z,74.87
2023-03-05T11:53:42.305Z,75.29
2023-03-05T11:58:48.993Z,75.58
2023-03-05T12:03:51.876Z,75.55
2023-03-05T12:08:59.503Z,77.73
2023-03-05T12:14:24.881Z,79.27
2023-03-05T12:19:35.757Z,78.62
2023-03-05T12:24:38.449Z,78.80
2023-03-05T12:29:52.706Z,78.32
2023-03-05T12:34:58.970Z,77.66
2023-03-05T12:40:04.719Z,75.40
2023-03-05T12:45:09.293Z,74.28
2023-03-05T12:50:29.411Z,75.18
2023-03-05T12:55:35.288Z,76.19
2023-03-05T13:00:46.851Z,77.17
2023-03-05T13:05:52.673Z,76.53
2023-03-05T13:10:56.284Z,75.84
2023-03-05T13:15:58.235Z,75.30
2023-03-05T13:21:11.584Z,76.82
2023-03-05T13:26:18.584Z,78.28
2023-03-05T13:31:23.081Z,76.35
2023-03-05T13:36:26.654Z,76.17
2023-03-05T13:41:29.654Z,76.56
2023-03-05T13:46:38.508Z,77.47
2023-03-05T13:51:44.723Z,78.54
2023-03-05T13:56:59.531Z,78.02
2023-03-05T14:02:04.296Z,77.77
2023-03-05T14:07:24.703Z,77.35
2023-03-05T14:12:35.770Z,76.88
2023-03-05T14:17:42.607Z,76.92
2023-03-05T14:22:46.828Z,78.92
2023-03-05T14:27:48.681Z,80.21
2023-03-05T14:32:51.640Z,77.69
2023-03-05T14:37:55.015Z,78.06
2023-03-05T14:42:57.894Z,79.43
2023-03-05T14:48:01.432Z,79.76
2023-03-05T14:53:13.004Z,79.86
2023-03-05T14:58:17.099Z,80.99
2023-03-05T15:03:19.814Z,83.25
2023-03-05T15:08:24.026Z,86.13
2023-03-05T15:13:26.372Z,88.86
2023-03-05T15:18:28.129Z,90.18
2023-03-05T15:23:35.302Z,90.60
2023-03-05T15:28:37.916Z,90.88
2023-03-05T15:33:41.851Z,91.09
2023-03-05T15:38:43.639Z,90.56
2023-03-05T15:43:45.252Z,89.32
2023-03-05T15:48:50.029Z,88.72
2023-03-05T15:53:51.874Z,89.05
2023-03-05T15:58:53.597Z,88.35
2023-03-05T16:03:55.390Z,87.94
2023-03-05T16:09:03.071Z,86.70
2023-03-05T16:14:07.150Z,86.28
2023-03-05T16:19:09.753Z,85.66
2023-03-05T16:24:11.923Z,85.73
2023-03-05T16:29:13.639Z,86.01
2023-03-05T16:34:16.298Z,86.08
2023-03-05T16:39:19.166Z,86.41
2023-03-05T16:44:21.112Z,86.23
2023-03-05T16:49:23.007Z,86.45
2023-03-05T16:54:24.622Z,86.76
2023-03-05T16:59:26.320Z,86.53
2023-03-05T17:04:28.055Z,86.50
2023-03-05T17:09:30.519Z,86.02
2023-03-05T17:14:32.173Z,85.54
2023-03-05T17:19:33.870Z,82.45
2023-03-05T17:24:35.623Z,80.09
2023-03-05T17:29:37.344Z,79.75
2023-03-05T17:34:39.018Z,80.01
2023-03-05T17:39:40.717Z,80.48
2023-03-05T17:44:42.633Z,81.35
2023-03-05T17:49:44.555Z,81.91
2023-03-05T17:54:46.179Z,81.68
2023-03-05T17:59:48.516Z,81.63
2023-03-05T18:04:52.125Z,81.32
2023-03-05T18:09:53.755Z,82.03
2023-03-05T18:14:55.396Z,81.73
2023-03-05T18:19:57.102Z,82.29
2023-03-05T18:24:59.383Z,81.85
2023-03-05T18:30:01.063Z,82.06
2023-03-05T18:35:03.129Z,82.62
2023-03-05T18:40:09.600Z,82.41
2023-03-05T18:45:14.549Z,82.85
2023-03-05T18:50:18.596Z,84.63
2023-03-05T18:55:23.736Z,86.78
2023-03-05T19:00:27.678Z,87.99
2023-03-05T19:05:29.931Z,88.06
2023-03-05T19:10:32.363Z,88.41
2023-03-05T19:15:34.067Z,89.26
2023-03-05T19:20:35.775Z,89.12
2023-03-05T19:25:37.642Z,89.05
2023-03-05T19:30:39.307Z,89.34
2023-03-05T19:35:41.770Z,89.32
2023-03-05T19:40:43.398Z,89.52
2023-03-05T19:45:45.021Z,89.18
2023-03-05T19:50:46.689Z,89.04
2023-03-05T19:55:48.310Z,88.95
2023-03-05T20:00:49.942Z,88.63
2023-03-05T20:05:51.600Z,89.48
2023-03-05T20:10:53.274Z,89.70
2023-03-05T20:15:55.404Z,89.51
2023-03-05T20:21:02.852Z,89.11
2023-03-05T20:26:06.890Z,89.26
2023-03-05T20:31:08.579Z,89.79
2023-03-05T20:36:10.344Z,90.04
2023-03-05T20:41:16.734Z,90.11
2023-03-05T20:46:19.846Z,90.15
2023-03-05T20:51:24.465Z,89.44
2023-03-05T20:56:29.203Z,89.07
2023-03-05T21:01:33.063Z,88.51
2023-03-05T21:06:35.188Z,88.54
2023-03-05T21:11:37.271Z,88.70
2023-03-05T21:16:38.957Z,88.26
2023-03-05T21:21:44.852Z,88.48
2023-03-05T21:26:47.184Z,88.32
2023-03-05T21:31:48.845Z,88.09
2023-03-05T21:36:50.481Z,86.96
2023-03-05T21:41:52.128Z,86.31
2023-03-05T21:46:53.828Z,85.06
2023-03-05T21:52:21.986Z,84.84
2023-03-05T21:57:24.112Z,84.74
2023-03-05T22:02:26.114Z,84.62
2023-03-05T22:07:27.954Z,84.09
2023-03-05T22:12:49.401Z,83.98
2023-03-05T22:17:51.088Z,83.31
2023-03-05T22:22:52.708Z,83.26
2023-03-05T22:27:54.669Z,82.82
2023-03-05T22:32:56.451Z,82.07
2023-03-05T22:37:58.253Z,82.69
2023-03-05T22:42:59.882Z,82.80
2023-03-05T22:48:01.727Z,82.78
2023-03-05T22:53:03.662Z,82.53
2023-03-05T22:58:05.324Z,83.01
2023-03-05T23:03:07.130Z,83.04
2023-03-05T23:08:09.274Z,82.70
2023-03-05T23:13:10.962Z,82.38
2023-03-05T23:18:14.653Z,82.20
2023-03-05T23:23:16.244Z,82.22
2023-03-05T23:28:19.320Z,82.13
2023-03-05T23:33:22.839Z,82.08
2023-03-05T23:38:26.672Z,81.91
2023-03-05T23:43:28.413Z,81.42
2023-03-05T23:48:30.483Z,81.55
2023-03-05T23:53:32.860Z,80.78
2023-03-05T23:58:35.606Z,81.13
